Friday, November 24, 2017, 1:16 PM GMT
Back to Local

CZBF, Bathurst Airport Aviation Weather Reporting Station

Location: , , Canada Lat: 47.633
Local Time: 1:16 PM GMT (13:16 GMT) Lon: -65.75
Time Zone: GMT Elev: 193 ft

Show me the last for .
Show Decoded

2017-11-24 13:00 METAR CZBF 241300Z 21007KT 15SM FEW140 M02/M05 A2976 RMK AC1 SLP081 =
2017-11-24 12:00 METAR CZBF 241200Z 24008KT 15SM BKN020 M02/M05 A2975 RMK SC7 SLP080 =
2017-11-24 11:00 METAR CZBF 241100Z 25011KT 15SM OVC050 M02/M05 A2974 RMK SC8 SLP075 =
2017-11-24 10:00 METAR CZBF 241000Z 00000KT 15SM OVC050 M04/M06 A2973 RMK SC8 SLP072 =
2017-11-24 09:00 METAR CZBF 240900Z 13004KT 15SM OVC050 M04/M06 A2971 RMK SC8 SLP067 =
2017-11-24 08:00 METAR CZBF 240800Z 15003KT 15SM OVC050 M05/M06 A2972 RMK SC8 SLP068 =
2017-11-24 07:00 METAR CZBF 240700Z 14002KT 15SM OVC050 M05/M06 A2973 RMK SC8 SLP073 =
2017-11-24 06:00 METAR CZBF 240600Z 19004KT 15SM OVC050 M05/M07 A2972 RMK SC8 SLP071 =
2017-11-24 05:00 METAR CZBF 240500Z VRB02KT 15SM OVC050 M05/M07 A2973 RMK SC8 SLP073 =
2017-11-24 04:00 METAR CZBF 240400Z 17003KT 15SM OVC070 M05/M07 A2974 RMK AC8 SLP078 =
2017-11-24 03:00 METAR CZBF 240300Z 26005KT 15SM OVC100 M04/M08 A2975 RMK AC8 SLP080 =
2017-11-24 02:00 METAR CZBF 240200Z 27008KT 15SM OVC100 M04/M08 A2977 RMK AC8 SLP085 =
2017-11-24 01:00 METAR CZBF 240100Z 27011G16KT 15SM OVC070 M04/M08 A2977 RMK AC8 SLP086 =
2017-11-24 00:00 METAR CZBF 240000Z 27008KT 15SM OVC070 M04/M08 A2977 RMK AC8 SLP088 =
2017-11-23 23:00 METAR CZBF 232300Z 28006KT 15SM OVC120 M05/M08 A2977 RMK AC8 SLP087 =
2017-11-23 22:00 METAR CZBF 232200Z 27006KT 15SM OVC030 M05/M09 A2978 RMK SC8 SLP088 =
2017-11-23 21:00 METAR CZBF 232100Z 27006KT 15SM BKN020 OVC100 M05/M08 A2976 RMK SC5AC3 SLP083 =
2017-11-23 20:00 METAR CZBF 232000Z 28007G15KT 250V330 15SM FEW020 BKN240 M04/M09 A2975 RMK
                 SC2CC5 SLP079 =
2017-11-23 19:00 METAR CZBF 231900Z 29009G16KT 15SM BKN020 BKN140 M04/M09 A2974 RMK SC6AC1 SLP074
                 =
2017-11-23 18:00 METAR CZBF 231800Z 28011G29KT 15SM BKN020 M04/M08 A2974 RMK SC6 SLP075 =
2017-11-23 17:00 METAR CZBF 231700Z 30014G24KT 250V340 15SM BKN020 M04/M08 A2971 RMK SC7 PRESRR
                 SLP065 =
2017-11-23 16:00 METAR CZBF 231600Z 29019G29KT 15SM FEW020 M04/M08 A2967 RMK SC2 SLP053 =
2017-11-23 15:00 METAR CZBF 231500Z 30016G30KT 270V330 15SM SCT020 M04/M08 A2968 RMK SC4 SLP057 =
2017-11-23 14:00 METAR CZBF 231400Z 28012G24KT 15SM BKN020 M04/M07 A2967 RMK SC5 SLP052 =

Support USWX by starting your Amazon purchase here.